createdAt,value
2023-05-12T00:00:03.614Z,4.10
2023-05-12T00:02:38.320Z,4.00
2023-05-12T00:05:05.253Z,4.20
2023-05-12T00:07:32.080Z,3.83
2023-05-12T00:09:58.746Z,3.97
2023-05-12T00:12:25.404Z,4.78
2023-05-12T00:14:51.927Z,4.10
2023-05-12T00:17:18.505Z,3.97
2023-05-12T00:19:45.167Z,3.97
2023-05-12T00:22:11.685Z,3.75
2023-05-12T00:24:38.384Z,3.92
2023-05-12T00:27:04.943Z,3.88
2023-05-12T00:29:32.271Z,3.88
2023-05-12T00:31:58.985Z,4.10
2023-05-12T00:34:26.998Z,4.22
2023-05-12T00:36:53.700Z,4.07
2023-05-12T00:39:20.885Z,3.83
2023-05-12T00:41:48.420Z,3.88
2023-05-12T00:44:15.086Z,4.30
2023-05-12T00:46:41.734Z,4.20
2023-05-12T00:49:14.398Z,4.45
2023-05-12T00:51:41.011Z,4.68
2023-05-12T00:54:07.409Z,4.43
2023-05-12T00:56:39.357Z,4.78
2023-05-12T00:59:08.185Z,4.82
2023-05-12T01:01:38.396Z,5.00
2023-05-12T01:04:05.316Z,4.57
2023-05-12T01:06:32.763Z,5.00
2023-05-12T01:08:59.530Z,4.63
2023-05-12T01:11:26.033Z,4.40
2023-05-12T01:13:52.597Z,4.68
2023-05-12T01:16:23.065Z,4.20
2023-05-12T01:18:51.433Z,4.47
2023-05-12T01:21:18.928Z,4.00
2023-05-12T01:23:48.670Z,4.18
2023-05-12T01:26:15.406Z,4.53
2023-05-12T01:28:42.426Z,4.70
2023-05-12T01:31:09.483Z,4.20
2023-05-12T01:33:38.122Z,4.35
2023-05-12T01:36:05.225Z,4.93
2023-05-12T01:38:32.592Z,4.53
2023-05-12T01:40:59.436Z,4.43
2023-05-12T01:43:26.115Z,4.05
2023-05-12T01:45:52.769Z,4.28
2023-05-12T01:48:19.593Z,4.10
2023-05-12T01:50:46.299Z,4.20
2023-05-12T01:53:18.159Z,4.35
2023-05-12T01:55:44.820Z,4.47
2023-05-12T01:58:11.982Z,4.10
2023-05-12T02:00:38.649Z,4.15
2023-05-12T02:03:09.270Z,4.32
2023-05-12T02:05:35.877Z,4.53
2023-05-12T02:08:04.255Z,4.40
2023-05-12T02:10:30.952Z,4.50
2023-05-12T02:12:57.714Z,4.60
2023-05-12T02:15:24.823Z,4.75
2023-05-12T02:17:54.392Z,5.28
2023-05-12T02:20:22.495Z,4.75
2023-05-12T02:22:51.905Z,4.85
2023-05-12T02:25:18.747Z,4.93
2023-05-12T02:27:45.403Z,4.85
2023-05-12T02:30:12.533Z,5.20
2023-05-12T02:32:39.158Z,4.68
2023-05-12T02:35:07.408Z,5.28
2023-05-12T02:37:34.761Z,4.50
2023-05-12T02:40:01.361Z,4.28
2023-05-12T02:42:33.664Z,4.07
2023-05-12T02:45:00.461Z,4.75
2023-05-12T02:47:27.053Z,4.88
2023-05-12T02:49:55.587Z,5.00
2023-05-12T02:52:22.137Z,5.03
2023-05-12T02:54:48.669Z,5.20
2023-05-12T02:57:15.195Z,5.80
2023-05-12T02:59:42.287Z,4.93
2023-05-12T03:02:08.980Z,5.53
2023-05-12T03:04:35.645Z,5.55
2023-05-12T03:07:02.393Z,5.30
2023-05-12T03:09:29.075Z,5.63
2023-05-12T03:11:55.633Z,5.20
2023-05-12T03:14:26.627Z,6.22
2023-05-12T03:16:53.257Z,5.70
2023-05-12T03:19:19.770Z,5.40
2023-05-12T03:21:46.437Z,4.97
2023-05-12T03:24:16.127Z,5.07
2023-05-12T03:26:45.037Z,4.70
2023-05-12T03:29:11.621Z,4.55
2023-05-12T03:31:38.676Z,5.20
2023-05-12T03:34:05.620Z,5.15
2023-05-12T03:36:32.087Z,5.03
2023-05-12T03:38:58.749Z,5.32
2023-05-12T03:41:25.273Z,4.75
2023-05-12T03:43:52.087Z,4.60
2023-05-12T03:46:18.594Z,4.47
2023-05-12T03:48:45.277Z,4.20
2023-05-12T03:51:11.821Z,4.43
2023-05-12T03:53:40.108Z,5.38
2023-05-12T03:56:06.800Z,4.35
2023-05-12T03:58:33.390Z,4.85
2023-05-12T04:01:01.756Z,4.50
2023-05-12T04:03:28.709Z,4.50
2023-05-12T04:05:59.571Z,4.63
2023-05-12T04:08:26.666Z,4.75
2023-05-12T04:10:57.652Z,4.88
2023-05-12T04:13:24.778Z,5.00
2023-05-12T04:15:51.871Z,4.45
2023-05-12T04:18:18.373Z,5.20
2023-05-12T04:20:45.518Z,4.38
2023-05-12T04:23:12.101Z,4.93
2023-05-12T04:25:39.039Z,4.68
2023-05-12T04:28:11.283Z,5.00
2023-05-12T04:30:39.537Z,5.75
2023-05-12T04:33:06.356Z,5.72
2023-05-12T04:35:36.008Z,5.18
2023-05-12T04:38:03.407Z,5.07
2023-05-12T04:40:31.231Z,4.80
2023-05-12T04:42:59.243Z,4.55
2023-05-12T04:45:26.293Z,5.07
2023-05-12T04:47:52.820Z,5.22
2023-05-12T04:50:19.323Z,5.82
2023-05-12T04:52:45.937Z,5.35
2023-05-12T04:55:13.126Z,5.28
2023-05-12T04:57:41.634Z,5.60
2023-05-12T05:00:10.213Z,5.38
2023-05-12T05:02:37.626Z,5.18
2023-05-12T05:05:04.601Z,5.30
2023-05-12T05:07:31.194Z,4.80
2023-05-12T05:09:58.105Z,5.00
2023-05-12T05:12:26.011Z,4.72
2023-05-12T05:14:52.768Z,4.43
2023-05-12T05:17:19.351Z,4.40
2023-05-12T05:19:57.325Z,4.45
2023-05-12T05:22:27.633Z,4.93
2023-05-12T05:24:54.261Z,4.82
2023-05-12T05:27:20.970Z,5.75
2023-05-12T05:29:47.453Z,4.90
2023-05-12T05:32:14.009Z,4.47
2023-05-12T05:34:40.579Z,5.18
2023-05-12T05:37:07.075Z,5.03
2023-05-12T05:39:34.674Z,4.72
2023-05-12T05:42:01.530Z,4.55
2023-05-12T05:44:29.601Z,5.00
2023-05-12T05:46:56.598Z,4.70
2023-05-12T05:49:25.483Z,4.70
2023-05-12T05:51:53.237Z,4.82
2023-05-12T05:54:19.895Z,4.72
2023-05-12T05:56:46.783Z,5.07
2023-05-12T05:59:15.502Z,5.32
2023-05-12T06:01:42.368Z,5.40
2023-05-12T06:04:09.619Z,4.72
2023-05-12T06:06:36.414Z,4.80
2023-05-12T06:09:02.861Z,4.90
2023-05-12T06:11:29.562Z,4.70
2023-05-12T06:13:56.009Z,5.30
2023-05-12T06:16:22.736Z,5.93
2023-05-12T06:18:49.484Z,4.82
2023-05-12T06:21:16.032Z,4.97
2023-05-12T06:23:42.664Z,4.88
2023-05-12T06:26:09.535Z,4.97
2023-05-12T06:28:36.081Z,12.43
2023-05-12T06:31:02.678Z,7.32
2023-05-12T06:33:29.206Z,4.88
2023-05-12T06:35:55.794Z,4.00
2023-05-12T06:38:22.250Z,4.43
2023-05-12T06:40:48.834Z,4.28
2023-05-12T06:43:15.491Z,3.80
2023-05-12T06:45:44.590Z,7.47
2023-05-12T06:48:11.886Z,4.00
2023-05-12T06:50:38.471Z,4.00
2023-05-12T06:53:06.361Z,3.78
2023-05-12T06:55:32.851Z,3.60
2023-05-12T06:57:59.604Z,3.60
2023-05-12T07:00:26.178Z,3.47
2023-05-12T07:02:53.137Z,4.40
2023-05-12T07:05:20.009Z,3.90
2023-05-12T07:07:46.753Z,3.53
2023-05-12T07:10:13.243Z,3.90
2023-05-12T07:12:39.815Z,3.60
2023-05-12T07:15:06.672Z,3.60
2023-05-12T07:17:33.184Z,3.65
2023-05-12T07:19:59.834Z,3.80
2023-05-12T07:22:26.500Z,4.50
2023-05-12T07:24:53.059Z,3.92
2023-05-12T07:27:19.718Z,4.05
2023-05-12T07:29:46.174Z,3.83
2023-05-12T07:32:13.368Z,3.72
2023-05-12T07:34:39.950Z,3.50
2023-05-12T07:37:06.536Z,4.07
2023-05-12T07:39:33.183Z,3.85
2023-05-12T07:41:59.711Z,3.88
2023-05-12T07:44:26.659Z,3.88
2023-05-12T07:46:53.194Z,4.10
2023-05-12T07:49:19.749Z,3.75
2023-05-12T07:51:46.224Z,3.92
2023-05-12T07:54:13.495Z,3.10
2023-05-12T07:56:40.083Z,3.50
2023-05-12T07:59:07.236Z,3.10
2023-05-12T08:01:34.864Z,3.15
2023-05-12T08:04:01.611Z,3.10
2023-05-12T08:06:28.265Z,3.55
2023-05-12T08:08:58.084Z,3.33
2023-05-12T08:11:25.001Z,3.08
2023-05-12T08:13:51.592Z,3.17
2023-05-12T08:16:18.405Z,3.13
2023-05-12T08:18:45.094Z,2.75
2023-05-12T08:21:11.942Z,3.15
2023-05-12T08:23:38.583Z,3.20
2023-05-12T08:26:05.361Z,2.92
2023-05-12T08:28:32.166Z,3.40
2023-05-12T08:30:59.007Z,2.55
2023-05-12T08:33:25.689Z,2.42
2023-05-12T08:35:52.275Z,2.50
2023-05-12T08:38:18.785Z,2.40
2023-05-12T08:41:04.281Z,2.67
2023-05-12T08:43:44.009Z,3.03
2023-05-12T08:46:11.835Z,2.30
2023-05-12T08:48:38.907Z,2.45
2023-05-12T08:51:11.988Z,2.50
2023-05-12T08:53:48.057Z,2.88
2023-05-12T08:58:54.990Z,2.45
2023-05-12T09:01:21.630Z,2.42
2023-05-12T09:03:48.246Z,2.70
2023-05-12T09:06:15.109Z,2.75
2023-05-12T09:08:41.769Z,2.40
2023-05-12T09:11:13.367Z,2.63
2023-05-12T09:13:50.718Z,2.72
2023-05-12T09:16:18.846Z,2.78
2023-05-12T09:18:52.886Z,2.50
2023-05-12T09:21:19.760Z,2.20
2023-05-12T09:24:12.394Z,3.13
2023-05-12T09:26:45.339Z,2.40
2023-05-12T09:29:18.269Z,2.28
2023-05-12T09:31:56.162Z,2.10
2023-05-12T09:34:31.791Z,2.17
2023-05-12T09:36:59.538Z,1.83
2023-05-12T09:39:26.086Z,2.15
2023-05-12T09:41:53.194Z,2.40
2023-05-12T09:44:19.855Z,2.00
2023-05-12T09:46:46.712Z,1.90
2023-05-12T09:49:13.368Z,1.67
2023-05-12T09:51:40.378Z,1.45
2023-05-12T09:54:07.947Z,1.83
2023-05-12T09:56:37.625Z,1.70
2023-05-12T09:59:05.201Z,1.58
2023-05-12T10:01:32.109Z,2.25
2023-05-12T10:03:59.174Z,1.80
2023-05-12T10:06:33.947Z,1.85
2023-05-12T10:09:09.064Z,2.00
2023-05-12T10:11:35.854Z,2.13
2023-05-12T10:14:02.761Z,2.10
2023-05-12T10:16:29.816Z,2.28
2023-05-12T10:18:56.696Z,1.95
2023-05-12T10:21:28.379Z,2.00
2023-05-12T10:23:55.328Z,2.20
2023-05-12T10:26:21.862Z,1.85
2023-05-12T10:28:48.828Z,2.25
2023-05-12T10:31:15.997Z,2.20
2023-05-12T10:33:42.530Z,2.28
2023-05-12T10:36:19.238Z,2.20
2023-05-12T10:38:48.072Z,2.13
2023-05-12T10:41:14.807Z,2.35
2023-05-12T10:43:43.171Z,2.10
2023-05-12T10:46:09.799Z,1.70
2023-05-12T10:48:36.937Z,1.98
2023-05-12T10:51:10.341Z,1.67
2023-05-12T10:53:49.232Z,1.92
2023-05-12T10:56:21.656Z,2.10
2023-05-12T10:59:06.765Z,1.75
2023-05-12T11:01:33.612Z,1.63
2023-05-12T11:04:10.216Z,2.20
2023-05-12T11:06:37.729Z,2.20
2023-05-12T11:09:05.141Z,2.00
2023-05-12T11:11:34.156Z,2.05
2023-05-12T11:14:00.853Z,2.00
2023-05-12T11:16:27.595Z,2.20
2023-05-12T11:19:03.273Z,2.17
2023-05-12T11:21:30.422Z,2.45
2023-05-12T11:23:57.337Z,2.30
2023-05-12T11:26:23.861Z,2.20
2023-05-12T11:28:50.749Z,1.83
2023-05-12T11:31:20.925Z,1.92
2023-05-12T11:34:01.316Z,2.00
2023-05-12T11:36:45.278Z,2.15
2023-05-12T11:39:16.613Z,2.30
2023-05-12T11:42:12.972Z,2.20
2023-05-12T11:47:49.448Z,2.05
2023-05-12T11:50:46.423Z,2.38
2023-05-12T11:53:25.569Z,2.05
2023-05-12T11:55:56.478Z,2.10
2023-05-12T11:58:30.188Z,2.30
2023-05-12T12:00:57.299Z,2.10
2023-05-12T12:03:24.571Z,1.85
2023-05-12T12:05:58.350Z,2.10
2023-05-12T12:08:24.823Z,2.10
2023-05-12T12:10:51.296Z,1.75
2023-05-12T12:13:21.710Z,2.15
2023-05-12T12:15:51.485Z,2.00
2023-05-12T12:18:18.951Z,2.10
2023-05-12T12:20:46.787Z,1.95
2023-05-12T12:23:13.348Z,1.80
2023-05-12T12:25:39.837Z,1.90
2023-05-12T12:28:06.283Z,1.75
2023-05-12T12:30:33.964Z,1.65
2023-05-12T12:33:00.711Z,1.75
2023-05-12T12:35:27.277Z,1.60
2023-05-12T12:37:53.808Z,1.88
2023-05-12T12:40:20.427Z,1.65
2023-05-12T12:42:47.072Z,1.60
2023-05-12T12:45:13.818Z,1.45
2023-05-12T12:47:40.440Z,1.80
2023-05-12T12:50:07.488Z,1.77
2023-05-12T12:52:34.203Z,1.48
2023-05-12T12:55:00.844Z,1.80
2023-05-12T12:57:27.410Z,1.98
2023-05-12T12:59:54.014Z,1.65
2023-05-12T13:02:20.906Z,1.90
2023-05-12T13:04:47.540Z,1.80
2023-05-12T13:07:14.042Z,1.83
2023-05-12T13:09:40.591Z,1.98
2023-05-12T13:12:07.340Z,1.80
2023-05-12T13:14:33.743Z,1.73
2023-05-12T13:17:02.374Z,1.90
2023-05-12T13:19:29.030Z,1.60
2023-05-12T13:21:55.438Z,1.63
2023-05-12T13:24:21.970Z,1.55
2023-05-12T13:26:48.476Z,1.80
2023-05-12T13:29:15.071Z,1.50
2023-05-12T13:31:42.890Z,1.77
2023-05-12T13:34:09.450Z,1.63
2023-05-12T13:36:36.021Z,1.90
2023-05-12T13:39:03.549Z,2.25
2023-05-12T13:41:30.337Z,2.13
2023-05-12T13:43:56.875Z,2.10
2023-05-12T13:46:23.533Z,1.67
2023-05-12T13:48:51.543Z,1.58
2023-05-12T13:51:18.981Z,1.90
2023-05-12T13:53:45.551Z,1.95
2023-05-12T13:56:16.114Z,1.80
2023-05-12T13:58:42.721Z,2.00
2023-05-12T14:01:09.650Z,1.70
2023-05-12T14:03:37.160Z,2.05
2023-05-12T14:06:04.304Z,1.70
2023-05-12T14:08:32.005Z,2.00
2023-05-12T14:10:58.721Z,1.80
2023-05-12T14:13:31.082Z,1.83
2023-05-12T14:15:57.899Z,1.83
2023-05-12T14:18:24.922Z,1.80
2023-05-12T14:20:51.800Z,2.30
2023-05-12T14:23:18.288Z,2.22
2023-05-12T14:25:44.805Z,2.33
2023-05-12T14:28:11.303Z,2.13
2023-05-12T14:30:38.070Z,1.88
2023-05-12T14:33:04.740Z,1.80
2023-05-12T14:35:32.068Z,2.40
2023-05-12T14:37:58.622Z,2.03
2023-05-12T14:40:25.163Z,1.90
2023-05-12T14:42:52.498Z,1.80
2023-05-12T14:45:19.138Z,1.90
2023-05-12T14:47:45.732Z,1.80
2023-05-12T14:50:12.418Z,1.80
2023-05-12T14:52:39.074Z,1.70
2023-05-12T14:55:08.461Z,1.75
2023-05-12T14:57:37.718Z,1.83
2023-05-12T15:00:06.414Z,2.03
2023-05-12T15:02:34.156Z,1.95
2023-05-12T15:05:00.699Z,1.90
2023-05-12T15:07:27.607Z,1.88
2023-05-12T15:09:54.061Z,1.73
2023-05-12T15:12:20.631Z,1.63
2023-05-12T15:14:47.564Z,1.85
2023-05-12T15:17:14.365Z,1.70
2023-05-12T15:19:40.903Z,1.90
2023-05-12T15:22:07.630Z,2.17
2023-05-12T15:24:34.459Z,2.65
2023-05-12T15:27:00.869Z,2.88
2023-05-12T15:29:27.616Z,2.50
2023-05-12T15:31:54.950Z,2.60
2023-05-12T15:34:22.263Z,2.97
2023-05-12T15:36:48.876Z,2.55
2023-05-12T15:39:18.185Z,2.75
2023-05-12T15:41:44.729Z,2.92
2023-05-12T15:44:11.223Z,2.90
2023-05-12T15:46:37.936Z,3.15
2023-05-12T15:49:04.493Z,3.28
2023-05-12T15:51:31.418Z,3.00
2023-05-12T15:53:57.935Z,3.13
2023-05-12T15:56:24.745Z,3.30
2023-05-12T15:58:51.204Z,2.97
2023-05-12T16:01:17.777Z,2.97
2023-05-12T16:03:44.549Z,3.03
2023-05-12T16:06:11.293Z,2.95
2023-05-12T16:08:38.672Z,2.83
2023-05-12T16:11:05.207Z,2.88
2023-05-12T16:13:31.927Z,3.03
2023-05-12T16:15:58.713Z,2.70
2023-05-12T16:18:25.262Z,2.28
2023-05-12T16:20:51.788Z,2.35
2023-05-12T16:23:18.351Z,2.40
2023-05-12T16:25:45.431Z,2.50
2023-05-12T16:28:12.241Z,2.25
2023-05-12T16:30:39.142Z,2.30
2023-05-12T16:33:07.299Z,2.47
2023-05-12T16:35:33.991Z,2.60
2023-05-12T16:38:00.611Z,2.47
2023-05-12T16:40:27.211Z,2.40
2023-05-12T16:42:54.910Z,2.63
2023-05-12T16:45:22.773Z,2.38
2023-05-12T16:47:49.864Z,2.30
2023-05-12T16:50:16.454Z,2.55
2023-05-12T16:52:43.156Z,2.15
2023-05-12T16:55:09.863Z,2.20
2023-05-12T16:57:36.832Z,2.00
2023-05-12T17:00:06.623Z,2.15
2023-05-12T17:02:33.415Z,2.40
2023-05-12T17:05:00.794Z,2.38
2023-05-12T17:07:27.324Z,2.58
2023-05-12T17:09:53.764Z,2.17
2023-05-12T17:12:20.870Z,2.30
2023-05-12T17:14:59.460Z,2.00
2023-05-12T17:17:33.402Z,1.77
2023-05-12T17:20:00.617Z,1.70
2023-05-12T17:22:28.005Z,1.75
2023-05-12T17:24:54.639Z,2.10
2023-05-12T17:27:21.548Z,1.90
2023-05-12T17:29:48.059Z,1.90
2023-05-12T17:32:14.703Z,1.70
2023-05-12T17:34:41.383Z,1.75
2023-05-12T17:37:08.415Z,1.70
2023-05-12T17:39:34.989Z,2.00
2023-05-12T17:42:03.755Z,2.00
2023-05-12T17:44:30.353Z,1.90
2023-05-12T17:46:57.015Z,1.77
2023-05-12T17:49:23.687Z,2.00
2023-05-12T17:51:50.285Z,1.98
2023-05-12T17:54:16.756Z,1.95
2023-05-12T17:56:44.588Z,1.52
2023-05-12T17:59:14.022Z,1.80
2023-05-12T18:01:40.682Z,1.95
2023-05-12T18:04:07.526Z,2.33
2023-05-12T18:06:34.351Z,2.25
2023-05-12T18:09:01.081Z,2.05
2023-05-12T18:11:29.188Z,2.00
2023-05-12T18:13:56.077Z,2.10
2023-05-12T18:16:28.343Z,1.85
2023-05-12T18:18:55.604Z,2.03
2023-05-12T18:21:22.244Z,2.30
2023-05-12T18:23:48.765Z,2.53
2023-05-12T18:26:15.298Z,2.30
2023-05-12T18:29:00.250Z,2.63
2023-05-12T18:31:26.905Z,3.10
2023-05-12T18:33:53.509Z,3.40
2023-05-12T18:36:20.739Z,2.92
2023-05-12T18:38:47.572Z,2.95
2023-05-12T18:41:14.078Z,3.60
2023-05-12T18:43:41.824Z,2.83
2023-05-12T18:46:08.679Z,3.15
2023-05-12T18:48:35.100Z,3.05
2023-05-12T18:51:02.511Z,3.20
2023-05-12T18:53:29.061Z,3.25
2023-05-12T18:55:56.100Z,3.22
2023-05-12T18:58:22.607Z,3.33
2023-05-12T19:00:49.103Z,3.45
2023-05-12T19:03:16.284Z,3.20
2023-05-12T19:05:44.517Z,3.42
2023-05-12T19:08:11.393Z,3.67
2023-05-12T19:10:39.699Z,3.58
2023-05-12T19:13:06.781Z,3.83
2023-05-12T19:15:33.248Z,3.10
2023-05-12T19:18:00.347Z,3.80
2023-05-12T19:20:28.131Z,3.33
2023-05-12T19:22:54.694Z,3.78
2023-05-12T19:25:21.688Z,4.55
2023-05-12T19:27:48.549Z,3.97
2023-05-12T19:30:15.075Z,3.40
2023-05-12T19:32:42.734Z,3.55
2023-05-12T19:35:12.319Z,3.42
2023-05-12T19:37:41.979Z,3.13
2023-05-12T19:40:08.684Z,3.65
2023-05-12T19:42:37.717Z,3.80
2023-05-12T19:45:04.945Z,3.38
2023-05-12T19:47:31.790Z,3.70
2023-05-12T19:49:58.303Z,3.60
2023-05-12T19:52:24.893Z,3.72
2023-05-12T19:54:51.919Z,3.42
2023-05-12T19:57:18.772Z,3.78
2023-05-12T20:02:42.513Z,4.28
2023-05-12T20:05:12.282Z,3.85
2023-05-12T20:07:39.099Z,3.78
2023-05-12T20:10:06.159Z,3.50
2023-05-12T20:12:32.586Z,3.33
2023-05-12T20:14:59.110Z,3.88
2023-05-12T20:17:25.687Z,3.70
2023-05-12T20:19:52.557Z,4.20
2023-05-12T20:22:19.023Z,5.38
2023-05-12T20:24:45.743Z,5.07
2023-05-12T20:27:12.584Z,5.88
2023-05-12T20:29:39.663Z,4.78
2023-05-12T20:32:06.353Z,4.60
2023-05-12T20:34:33.406Z,4.15
2023-05-12T20:36:59.963Z,4.63
2023-05-12T20:39:26.846Z,4.20
2023-05-12T20:41:53.555Z,3.90
2023-05-12T20:44:20.247Z,4.57
2023-05-12T20:46:46.841Z,4.10
2023-05-12T20:49:13.400Z,3.70
2023-05-12T20:51:40.015Z,3.72
2023-05-12T20:54:06.585Z,3.75
2023-05-12T20:56:33.083Z,4.13
2023-05-12T20:58:59.600Z,3.83
2023-05-12T21:01:26.331Z,4.43
2023-05-12T21:03:52.909Z,4.70
2023-05-12T21:06:19.879Z,4.47
2023-05-12T21:08:46.785Z,4.80
2023-05-12T21:11:14.782Z,4.82
2023-05-12T21:13:41.384Z,4.97
2023-05-12T21:16:07.948Z,4.80
2023-05-12T21:18:34.609Z,4.95
2023-05-12T21:21:01.259Z,4.90
2023-05-12T21:23:27.858Z,4.68
2023-05-12T21:25:54.645Z,5.40
2023-05-12T21:28:21.241Z,5.30
2023-05-12T21:30:48.017Z,5.50
2023-05-12T21:33:14.658Z,5.78
2023-05-12T21:35:41.236Z,5.93
2023-05-12T21:38:08.470Z,5.30
2023-05-12T21:40:35.031Z,6.03
2023-05-12T21:43:01.656Z,5.28
2023-05-12T21:45:28.181Z,5.50
2023-05-12T21:47:54.761Z,5.78
2023-05-12T21:50:21.737Z,5.32
2023-05-12T21:52:49.484Z,5.72
2023-05-12T21:55:16.203Z,5.85
2023-05-12T21:57:42.954Z,5.18
2023-05-12T22:00:11.368Z,5.72
2023-05-12T22:02:37.990Z,5.80
2023-05-12T22:05:05.531Z,5.90
2023-05-12T22:07:32.841Z,6.55
2023-05-12T22:09:59.396Z,5.75
2023-05-12T22:12:25.903Z,6.25
2023-05-12T22:14:52.429Z,6.20
2023-05-12T22:17:19.006Z,6.18
2023-05-12T22:19:46.145Z,6.50
2023-05-12T22:22:12.806Z,6.15
2023-05-12T22:24:39.298Z,6.20
2023-05-12T22:27:05.935Z,6.15
2023-05-12T22:29:32.599Z,6.35
2023-05-12T22:31:59.074Z,7.20
2023-05-12T22:34:25.669Z,6.63
2023-05-12T22:36:52.218Z,6.57
2023-05-12T22:39:19.757Z,6.53
2023-05-12T22:41:46.165Z,6.60
2023-05-12T22:44:12.635Z,6.82
2023-05-12T22:46:39.213Z,6.88
2023-05-12T22:49:05.690Z,6.50
2023-05-12T22:51:32.294Z,7.07
2023-05-12T22:53:58.714Z,6.32
2023-05-12T22:56:26.512Z,6.60
2023-05-12T22:58:53.076Z,6.30
2023-05-12T23:01:19.710Z,6.20
2023-05-12T23:03:46.234Z,6.78
2023-05-12T23:06:13.016Z,7.15
2023-05-12T23:08:39.497Z,6.72
2023-05-12T23:11:06.187Z,7.45
2023-05-12T23:13:35.192Z,7.03
2023-05-12T23:16:01.713Z,7.00
2023-05-12T23:18:28.325Z,6.45
2023-05-12T23:20:54.896Z,6.22
2023-05-12T23:23:21.458Z,6.28
2023-05-12T23:25:48.241Z,7.13
2023-05-12T23:28:14.836Z,7.55
2023-05-12T23:30:41.420Z,7.40
2023-05-12T23:33:07.967Z,7.97
2023-05-12T23:35:34.812Z,8.15
2023-05-12T23:38:01.265Z,6.90
2023-05-12T23:40:27.904Z,6.82
2023-05-12T23:42:54.402Z,6.47
2023-05-12T23:45:21.165Z,6.18
2023-05-12T23:47:49.861Z,5.97
2023-05-12T23:50:16.350Z,6.63
2023-05-12T23:52:43.080Z,6.80
2023-05-12T23:55:09.834Z,7.25
2023-05-12T23:57:36.294Z,7.10
